sensor_id;sensor_type;location;lat;lon;timestamp;pressure;altitude;pressure_sealevel;temperature;humidity
47556;BME280;33291;46.222;26.460;2023-04-27T00:01:16;96180.75;;;5.08;100.00
47556;BME280;33291;46.222;26.460;2023-04-27T00:03:42;96170.13;;;4.89;100.00
47556;BME280;33291;46.222;26.460;2023-04-27T00:06:10;96175.81;;;4.94;100.00
47556;BME280;33291;46.222;26.460;2023-04-27T00:08:36;96185.44;;;5.03;100.00
47556;BME280;33291;46.222;26.460;2023-04-27T00:11:02;96182.97;;;5.02;100.00
47556;BME280;33291;46.222;26.460;2023-04-27T00:13:28;96176.16;;;5.01;100.00
47556;BME280;33291;46.222;26.460;2023-04-27T00:15:53;96160.19;;;4.95;100.00
47556;BME280;33291;46.222;26.460;2023-04-27T00:18:19;96173.97;;;5.07;100.00
47556;BME280;33291;46.222;26.460;2023-04-27T00:20:45;96152.56;;;4.94;100.00
47556;BME280;33291;46.222;26.460;2023-04-27T00:23:11;96173.13;;;5.07;100.00
47556;BME280;33291;46.222;26.460;2023-04-27T00:25:37;96179.25;;;5.06;100.00
47556;BME280;33291;46.222;26.460;2023-04-27T00:28:02;96177.00;;;5.01;100.00
47556;BME280;33291;46.222;26.460;2023-04-27T00:30:28;96180.06;;;5.06;100.00
47556;BME280;33291;46.222;26.460;2023-04-27T00:32:53;96183.34;;;5.08;100.00
47556;BME280;33291;46.222;26.460;2023-04-27T00:35:19;96176.44;;;5.09;100.00
47556;BME280;33291;46.222;26.460;2023-04-27T00:37:44;96176.91;;;5.03;100.00
47556;BME280;33291;46.222;26.460;2023-04-27T00:40:10;96183.13;;;5.11;100.00
47556;BME280;33291;46.222;26.460;2023-04-27T00:42:36;96191.72;;;5.12;100.00
47556;BME280;33291;46.222;26.460;2023-04-27T00:45:02;96183.22;;;5.10;100.00
47556;BME280;33291;46.222;26.460;2023-04-27T00:47:29;96187.47;;;5.11;100.00
47556;BME280;33291;46.222;26.460;2023-04-27T00:49:55;96180.06;;;5.06;100.00
47556;BME280;33291;46.222;26.460;2023-04-27T00:52:21;96188.63;;;5.07;100.00
47556;BME280;33291;46.222;26.460;2023-04-27T00:54:49;96190.06;;;5.11;100.00
47556;BME280;33291;46.222;26.460;2023-04-27T00:57:15;96179.38;;;5.04;100.00
47556;BME280;33291;46.222;26.460;2023-04-27T00:59:40;96189.94;;;5.12;100.00
47556;BME280;33291;46.222;26.460;2023-04-27T01:02:06;96190.75;;;5.13;100.00
47556;BME280;33291;46.222;26.460;2023-04-27T01:04:32;96190.16;;;5.09;100.00
47556;BME280;33291;46.222;26.460;2023-04-27T01:06:58;96188.97;;;5.02;100.00
47556;BME280;33291;46.222;26.460;2023-04-27T01:09:23;96196.13;;;5.10;100.00
47556;BME280;33291;46.222;26.460;2023-04-27T01:11:49;96204.84;;;5.09;100.00
47556;BME280;33291;46.222;26.460;2023-04-27T01:14:15;96193.41;;;5.00;100.00
47556;BME280;33291;46.222;26.460;2023-04-27T01:16:41;96204.22;;;5.05;100.00
47556;BME280;33291;46.222;26.460;2023-04-27T01:19:07;96209.59;;;5.02;100.00
47556;BME280;33291;46.222;26.460;2023-04-27T01:21:33;96205.75;;;4.96;100.00
47556;BME280;33291;46.222;26.460;2023-04-27T01:23:58;96186.06;;;4.83;100.00
47556;BME280;33291;46.222;26.460;2023-04-27T01:26:24;96211.50;;;5.00;100.00
47556;BME280;33291;46.222;26.460;2023-04-27T01:28:49;96193.59;;;4.86;100.00
47556;BME280;33291;46.222;26.460;2023-04-27T01:31:15;96219.56;;;4.95;100.00
47556;BME280;33291;46.222;26.460;2023-04-27T01:33:40;96212.16;;;4.91;100.00
47556;BME280;33291;46.222;26.460;2023-04-27T01:36:07;96212.63;;;4.96;100.00
47556;BME280;33291;46.222;26.460;2023-04-27T01:38:33;96216.16;;;4.95;100.00
47556;BME280;33291;46.222;26.460;2023-04-27T01:40:59;96216.06;;;4.96;100.00
47556;BME280;33291;46.222;26.460;2023-04-27T01:43:30;96202.53;;;4.93;100.00
47556;BME280;33291;46.222;26.460;2023-04-27T01:46:07;96202.88;;;4.88;100.00
47556;BME280;33291;46.222;26.460;2023-04-27T01:48:33;96212.16;;;4.91;100.00
47556;BME280;33291;46.222;26.460;2023-04-27T01:50:59;96215.66;;;4.90;100.00
47556;BME280;33291;46.222;26.460;2023-04-27T01:53:24;96217.53;;;4.88;100.00
47556;BME280;33291;46.222;26.460;2023-04-27T01:55:50;96222.81;;;4.86;100.00
47556;BME280;33291;46.222;26.460;2023-04-27T01:58:15;96228.69;;;4.88;100.00
47556;BME280;33291;46.222;26.460;2023-04-27T02:00:41;96219.38;;;4.86;100.00
47556;BME280;33291;46.222;26.460;2023-04-27T02:03:07;96216.81;;;4.86;100.00
47556;BME280;33291;46.222;26.460;2023-04-27T02:05:32;96224.94;;;4.92;100.00
47556;BME280;33291;46.222;26.460;2023-04-27T02:07:57;96225.06;;;4.91;100.00
47556;BME280;33291;46.222;26.460;2023-04-27T02:10:23;96224.56;;;4.86;100.00
47556;BME280;33291;46.222;26.460;2023-04-27T02:12:49;96234.88;;;4.86;100.00
47556;BME280;33291;46.222;26.460;2023-04-27T02:15:14;96229.59;;;4.87;100.00
47556;BME280;33291;46.222;26.460;2023-04-27T02:17:40;96212.66;;;4.72;100.00
47556;BME280;33291;46.222;26.460;2023-04-27T02:20:06;96238.41;;;4.85;100.00
47556;BME280;33291;46.222;26.460;2023-04-27T02:22:33;96236.66;;;4.85;100.00
47556;BME280;33291;46.222;26.460;2023-04-27T02:24:58;96224.41;;;4.76;100.00
47556;BME280;33291;46.222;26.460;2023-04-27T02:27:24;96239.66;;;4.79;100.00
47556;BME280;33291;46.222;26.460;2023-04-27T02:29:50;96255.41;;;4.87;100.00
47556;BME280;33291;46.222;26.460;2023-04-27T02:32:15;96246.25;;;4.83;100.00
47556;BME280;33291;46.222;26.460;2023-04-27T02:34:41;96233.91;;;4.75;100.00
47556;BME280;33291;46.222;26.460;2023-04-27T02:37:06;96247.88;;;4.84;100.00
47556;BME280;33291;46.222;26.460;2023-04-27T02:39:32;96254.00;;;4.83;100.00
47556;BME280;33291;46.222;26.460;2023-04-27T02:41:57;96250.47;;;4.84;100.00
47556;BME280;33291;46.222;26.460;2023-04-27T02:44:23;96250.59;;;4.83;100.00
47556;BME280;33291;46.222;26.460;2023-04-27T02:46:49;96233.72;;;4.66;100.00
47556;BME280;33291;46.222;26.460;2023-04-27T02:49:15;96249.88;;;4.80;100.00
47556;BME280;33291;46.222;26.460;2023-04-27T02:51:41;96256.81;;;4.80;100.00
47556;BME280;33291;46.222;26.460;2023-04-27T02:54:06;96254.22;;;4.80;100.00
47556;BME280;33291;46.222;26.460;2023-04-27T02:56:33;96254.56;;;4.75;100.00
47556;BME280;33291;46.222;26.460;2023-04-27T02:58:58;96263.00;;;4.77;100.00
47556;BME280;33291;46.222;26.460;2023-04-27T03:01:24;96268.06;;;4.79;100.00
47556;BME280;33291;46.222;26.460;2023-04-27T03:03:49;96274.88;;;4.80;100.00
47556;BME280;33291;46.222;26.460;2023-04-27T03:06:15;96261.56;;;4.73;100.00
47556;BME280;33291;46.222;26.460;2023-04-27T03:08:40;96278.69;;;4.74;100.00
47556;BME280;33291;46.222;26.460;2023-04-27T03:11:06;96269.63;;;4.69;100.00
47556;BME280;33291;46.222;26.460;2023-04-27T03:13:33;96275.53;;;4.71;100.00
47556;BME280;33291;46.222;26.460;2023-04-27T03:16:09;96266.56;;;4.63;100.00
47556;BME280;33291;46.222;26.460;2023-04-27T03:18:36;96274.78;;;4.69;100.00
47556;BME280;33291;46.222;26.460;2023-04-27T03:21:09;96278.31;;;4.68;100.00
47556;BME280;33291;46.222;26.460;2023-04-27T03:23:35;96285.94;;;4.69;100.00
47556;BME280;33291;46.222;26.460;2023-04-27T03:26:05;96287.41;;;4.60;100.00
47556;BME280;33291;46.222;26.460;2023-04-27T03:28:30;96286.78;;;4.57;100.00
47556;BME280;33291;46.222;26.460;2023-04-27T03:30:56;96259.81;;;4.37;100.00
47556;BME280;33291;46.222;26.460;2023-04-27T03:33:21;96296.38;;;4.55;100.00
47556;BME280;33291;46.222;26.460;2023-04-27T03:35:54;96299.56;;;4.58;100.00
47556;BME280;33291;46.222;26.460;2023-04-27T03:38:20;96293.00;;;4.54;100.00
47556;BME280;33291;46.222;26.460;2023-04-27T03:40:45;96294.34;;;4.47;100.00
47556;BME280;33291;46.222;26.460;2023-04-27T03:43:11;96298.38;;;4.51;100.00
47556;BME280;33291;46.222;26.460;2023-04-27T03:45:36;96309.28;;;4.55;100.00
47556;BME280;33291;46.222;26.460;2023-04-27T03:48:02;96274.66;;;4.33;100.00
47556;BME280;33291;46.222;26.460;2023-04-27T03:50:27;96304.56;;;4.49;100.00
47556;BME280;33291;46.222;26.460;2023-04-27T03:52:53;96304.78;;;4.45;100.00
47556;BME280;33291;46.222;26.460;2023-04-27T03:55:18;96294.78;;;4.41;100.00
47556;BME280;33291;46.222;26.460;2023-04-27T03:57:44;96289.31;;;4.33;100.00
47556;BME280;33291;46.222;26.460;2023-04-27T04:00:10;96312.50;;;4.45;100.00
47556;BME280;33291;46.222;26.460;2023-04-27T04:02:36;96316.97;;;4.43;100.00
47556;BME280;33291;46.222;26.460;2023-04-27T04:05:02;96306.84;;;4.40;100.00
47556;BME280;33291;46.222;26.460;2023-04-27T04:07:27;96304.16;;;4.42;100.00
47556;BME280;33291;46.222;26.460;2023-04-27T04:09:53;96319.00;;;4.51;100.00
47556;BME280;33291;46.222;26.460;2023-04-27T04:12:18;96318.38;;;4.48;100.00
47556;BME280;33291;46.222;26.460;2023-04-27T04:14:44;96324.78;;;4.55;100.00
47556;BME280;33291;46.222;26.460;2023-04-27T04:17:13;96319.00;;;4.51;100.00
47556;BME280;33291;46.222;26.460;2023-04-27T04:19:38;96319.72;;;4.53;100.00
47556;BME280;33291;46.222;26.460;2023-04-27T04:22:04;96314.88;;;4.49;100.00
47556;BME280;33291;46.222;26.460;2023-04-27T04:24:29;96321.91;;;4.47;100.00
47556;BME280;33291;46.222;26.460;2023-04-27T04:26:55;96289.13;;;4.23;100.00
47556;BME280;33291;46.222;26.460;2023-04-27T04:29:21;96310.13;;;4.30;100.00
47556;BME280;33291;46.222;26.460;2023-04-27T04:31:46;96319.84;;;4.39;100.00
47556;BME280;33291;46.222;26.460;2023-04-27T04:34:12;96323.75;;;4.44;100.00
47556;BME280;33291;46.222;26.460;2023-04-27T04:36:38;96325.50;;;4.44;100.00
47556;BME280;33291;46.222;26.460;2023-04-27T04:39:05;96298.78;;;4.32;100.00
47556;BME280;33291;46.222;26.460;2023-04-27T04:41:31;96321.47;;;4.40;100.00
47556;BME280;33291;46.222;26.460;2023-04-27T04:43:57;96333.13;;;4.45;100.00
47556;BME280;33291;46.222;26.460;2023-04-27T04:46:23;96329.63;;;4.47;100.00
47556;BME280;33291;46.222;26.460;2023-04-27T04:48:49;96323.53;;;4.48;100.00
47556;BME280;33291;46.222;26.460;2023-04-27T04:51:15;96332.50;;;4.55;100.00
47556;BME280;33291;46.222;26.460;2023-04-27T04:53:41;96336.97;;;4.53;100.00
47556;BME280;33291;46.222;26.460;2023-04-27T04:56:13;96333.63;;;4.51;100.00
47556;BME280;33291;46.222;26.460;2023-04-27T04:58:38;96327.06;;;4.47;100.00
47556;BME280;33291;46.222;26.460;2023-04-27T05:01:04;96328.69;;;4.48;100.00
47556;BME280;33291;46.222;26.460;2023-04-27T05:03:31;96320.25;;;4.33;100.00
47556;BME280;33291;46.222;26.460;2023-04-27T05:05:56;96324.59;;;4.32;100.00
47556;BME280;33291;46.222;26.460;2023-04-27T05:08:22;96331.69;;;4.41;100.00
47556;BME280;33291;46.222;26.460;2023-04-27T05:10:51;96332.84;;;4.37;99.75
47556;BME280;33291;46.222;26.460;2023-04-27T05:13:17;96336.63;;;4.44;99.00
47556;BME280;33291;46.222;26.460;2023-04-27T05:15:42;96327.38;;;4.42;98.91
47556;BME280;33291;46.222;26.460;2023-04-27T05:18:08;96327.97;;;4.45;98.71
47556;BME280;33291;46.222;26.460;2023-04-27T05:20:34;96327.78;;;4.49;98.50
47556;BME280;33291;46.222;26.460;2023-04-27T05:23:00;96338.16;;;4.60;98.13
47556;BME280;33291;46.222;26.460;2023-04-27T05:25:28;96340.34;;;4.66;97.71
47556;BME280;33291;46.222;26.460;2023-04-27T05:27:53;96338.16;;;4.73;97.76
47556;BME280;33291;46.222;26.460;2023-04-27T05:30:19;96331.22;;;4.73;94.93
47556;BME280;33291;46.222;26.460;2023-04-27T05:32:45;96335.25;;;4.77;94.11
47556;BME280;33291;46.222;26.460;2023-04-27T05:35:10;96328.09;;;4.81;92.13
47556;BME280;33291;46.222;26.460;2023-04-27T05:37:36;96333.16;;;4.83;85.11
47556;BME280;33291;46.222;26.460;2023-04-27T05:40:01;96316.88;;;4.82;84.51
47556;BME280;33291;46.222;26.460;2023-04-27T05:42:29;96335.50;;;4.98;77.16
47556;BME280;33291;46.222;26.460;2023-04-27T05:44:54;96330.63;;;5.07;77.81
47556;BME280;33291;46.222;26.460;2023-04-27T05:47:20;96325.13;;;5.11;77.91
47556;BME280;33291;46.222;26.460;2023-04-27T05:49:49;96326.34;;;5.19;77.62
47556;BME280;33291;46.222;26.460;2023-04-27T05:52:15;96338.00;;;5.24;74.84
47556;BME280;33291;46.222;26.460;2023-04-27T05:54:48;96317.78;;;5.18;73.30
47556;BME280;33291;46.222;26.460;2023-04-27T05:57:14;96326.31;;;5.31;72.10
47556;BME280;33291;46.222;26.460;2023-04-27T05:59:40;96329.97;;;5.40;70.83
47556;BME280;33291;46.222;26.460;2023-04-27T06:02:06;96336.00;;;5.52;68.00
47556;BME280;33291;46.222;26.460;2023-04-27T06:04:31;96334.22;;;5.52;65.15
47556;BME280;33291;46.222;26.460;2023-04-27T06:06:58;96334.84;;;5.56;65.09
47556;BME280;33291;46.222;26.460;2023-04-27T06:09:24;96334.22;;;5.52;61.46
47556;BME280;33291;46.222;26.460;2023-04-27T06:11:49;96324.75;;;5.53;62.42
47556;BME280;33291;46.222;26.460;2023-04-27T06:14:15;96336.97;;;5.62;63.60
47556;BME280;33291;46.222;26.460;2023-04-27T06:16:41;96329.94;;;5.64;64.51
47556;BME280;33291;46.222;26.460;2023-04-27T06:19:06;96325.84;;;5.73;62.26
47556;BME280;33291;46.222;26.460;2023-04-27T06:21:32;96323.03;;;5.76;62.01
47556;BME280;33291;46.222;26.460;2023-04-27T06:23:58;96324.72;;;5.77;61.78
47556;BME280;33291;46.222;26.460;2023-04-27T06:26:25;96327.06;;;5.80;60.81
47556;BME280;33291;46.222;26.460;2023-04-27T06:28:50;96323.63;;;5.80;62.25
47556;BME280;33291;46.222;26.460;2023-04-27T06:31:16;96327.59;;;5.97;61.70
47556;BME280;33291;46.222;26.460;2023-04-27T06:33:42;96325.72;;;6.10;62.70
47556;BME280;33291;46.222;26.460;2023-04-27T06:36:07;96316.25;;;6.33;61.45
47556;BME280;33291;46.222;26.460;2023-04-27T06:38:33;96314.94;;;6.50;59.39
47556;BME280;33291;46.222;26.460;2023-04-27T06:40:58;96319.63;;;6.68;58.86
47556;BME280;33291;46.222;26.460;2023-04-27T06:43:24;96305.28;;;6.75;57.83
47556;BME280;33291;46.222;26.460;2023-04-27T06:45:50;96303.81;;;6.93;57.74
47556;BME280;33291;46.222;26.460;2023-04-27T06:48:15;96308.16;;;7.04;57.96
47556;BME280;33291;46.222;26.460;2023-04-27T06:50:42;96299.44;;;7.17;58.55
47556;BME280;33291;46.222;26.460;2023-04-27T06:53:07;96298.09;;;7.22;58.06
47556;BME280;33291;46.222;26.460;2023-04-27T06:55:33;96303.94;;;7.36;57.30
47556;BME280;33291;46.222;26.460;2023-04-27T06:57:59;96302.88;;;7.38;57.23
47556;BME280;33291;46.222;26.460;2023-04-27T07:00:25;96305.13;;;7.43;57.50
47556;BME280;33291;46.222;26.460;2023-04-27T07:02:51;96292.41;;;7.40;57.76
47556;BME280;33291;46.222;26.460;2023-04-27T07:05:17;96300.84;;;7.53;56.81
47556;BME280;33291;46.222;26.460;2023-04-27T07:07:43;96301.09;;;7.50;55.68
47556;BME280;33291;46.222;26.460;2023-04-27T07:10:08;96309.91;;;7.47;56.20
47556;BME280;33291;46.222;26.460;2023-04-27T07:12:34;96296.63;;;7.41;55.26
47556;BME280;33291;46.222;26.460;2023-04-27T07:15:00;96299.25;;;7.29;55.72
47556;BME280;33291;46.222;26.460;2023-04-27T07:17:27;96305.13;;;7.32;57.12
47556;BME280;33291;46.222;26.460;2023-04-27T07:19:53;96311.59;;;7.37;57.03
47556;BME280;33291;46.222;26.460;2023-04-27T07:22:18;96314.06;;;7.39;57.23
47556;BME280;33291;46.222;26.460;2023-04-27T07:24:44;96310.28;;;7.43;55.79
47556;BME280;33291;46.222;26.460;2023-04-27T07:27:10;96313.38;;;7.37;57.32
47556;BME280;33291;46.222;26.460;2023-04-27T07:29:35;96300.56;;;7.24;57.18
47556;BME280;33291;46.222;26.460;2023-04-27T07:32:04;96309.38;;;7.33;57.16
47556;BME280;33291;46.222;26.460;2023-04-27T07:34:30;96302.78;;;7.28;57.48
47556;BME280;33291;46.222;26.460;2023-04-27T07:36:56;96296.91;;;7.26;57.85
47556;BME280;33291;46.222;26.460;2023-04-27T07:39:21;96286.31;;;7.29;58.44
47556;BME280;33291;46.222;26.460;2023-04-27T07:41:46;96303.44;;;7.42;58.21
47556;BME280;33291;46.222;26.460;2023-04-27T07:44:12;96300.50;;;7.46;57.91
47556;BME280;33291;46.222;26.460;2023-04-27T07:46:37;96306.81;;;7.54;57.26
47556;BME280;33291;46.222;26.460;2023-04-27T07:49:03;96308.91;;;7.60;56.37
47556;BME280;33291;46.222;26.460;2023-04-27T07:51:28;96298.50;;;7.50;55.96
47556;BME280;33291;46.222;26.460;2023-04-27T07:53:54;96309.97;;;7.57;56.13
47556;BME280;33291;46.222;26.460;2023-04-27T07:56:19;96307.19;;;7.49;56.07
47556;BME280;33291;46.222;26.460;2023-04-27T07:58:46;96306.03;;;7.53;56.38
47556;BME280;33291;46.222;26.460;2023-04-27T08:01:11;96314.22;;;7.58;56.93
47556;BME280;33291;46.222;26.460;2023-04-27T08:03:36;96300.72;;;7.76;56.16
47556;BME280;33291;46.222;26.460;2023-04-27T08:06:02;96309.56;;;7.94;55.04
47556;BME280;33291;46.222;26.460;2023-04-27T08:08:28;96304.19;;;8.07;54.94
47556;BME280;33291;46.222;26.460;2023-04-27T08:10:54;96296.47;;;8.17;54.09
47556;BME280;33291;46.222;26.460;2023-04-27T08:13:19;96294.28;;;8.22;52.60
47556;BME280;33291;46.222;26.460;2023-04-27T08:15:45;96295.22;;;8.21;52.81
47556;BME280;33291;46.222;26.460;2023-04-27T08:18:10;96294.16;;;8.24;52.78
47556;BME280;33291;46.222;26.460;2023-04-27T08:20:36;96287.31;;;8.23;53.20
47556;BME280;33291;46.222;26.460;2023-04-27T08:23:01;96292.25;;;8.26;53.06
47556;BME280;33291;46.222;26.460;2023-04-27T08:25:27;96298.56;;;8.33;53.51
47556;BME280;33291;46.222;26.460;2023-04-27T08:27:52;96300.91;;;8.36;54.12
47556;BME280;33291;46.222;26.460;2023-04-27T08:30:18;96287.53;;;8.41;53.61
47556;BME280;33291;46.222;26.460;2023-04-27T08:32:43;96301.41;;;8.51;53.90
47556;BME280;33291;46.222;26.460;2023-04-27T08:35:09;96287.31;;;8.44;54.39
47556;BME280;33291;46.222;26.460;2023-04-27T08:37:34;96300.75;;;8.49;53.38
47556;BME280;33291;46.222;26.460;2023-04-27T08:40:01;96295.69;;;8.47;54.39
47556;BME280;33291;46.222;26.460;2023-04-27T08:42:27;96299.09;;;8.48;54.23
47556;BME280;33291;46.222;26.460;2023-04-27T08:44:54;96292.94;;;8.49;54.38
47556;BME280;33291;46.222;26.460;2023-04-27T08:47:22;96293.09;;;8.47;55.02
47556;BME280;33291;46.222;26.460;2023-04-27T08:49:47;96303.75;;;8.54;54.95
47556;BME280;33291;46.222;26.460;2023-04-27T08:52:13;96301.97;;;8.54;53.36
47556;BME280;33291;46.222;26.460;2023-04-27T08:54:39;96307.94;;;8.45;53.85
47556;BME280;33291;46.222;26.460;2023-04-27T08:57:11;96306.06;;;8.47;54.52
47556;BME280;33291;46.222;26.460;2023-04-27T08:59:41;96304.28;;;8.48;53.66
47556;BME280;33291;46.222;26.460;2023-04-27T09:02:19;96291.19;;;8.28;53.54
47556;BME280;33291;46.222;26.460;2023-04-27T09:04:45;96307.75;;;8.37;53.48
47556;BME280;33291;46.222;26.460;2023-04-27T09:07:15;96309.50;;;8.36;52.46
47556;BME280;33291;46.222;26.460;2023-04-27T09:09:41;96313.19;;;8.34;52.82
47556;BME280;33291;46.222;26.460;2023-04-27T09:12:20;96311.41;;;8.34;52.68
47556;BME280;33291;46.222;26.460;2023-04-27T09:14:59;96316.19;;;8.29;52.62
47556;BME280;33291;46.222;26.460;2023-04-27T09:17:28;96322.31;;;8.28;52.78
47556;BME280;33291;46.222;26.460;2023-04-27T09:20:08;96315.47;;;8.27;53.33
47556;BME280;33291;46.222;26.460;2023-04-27T09:22:51;96316.31;;;8.28;53.19
47556;BME280;33291;46.222;26.460;2023-04-27T09:25:29;96314.16;;;8.33;53.42
47556;BME280;33291;46.222;26.460;2023-04-27T09:27:56;96308.41;;;8.29;53.74
47556;BME280;33291;46.222;26.460;2023-04-27T09:30:22;96304.03;;;8.30;53.48
47556;BME280;33291;46.222;26.460;2023-04-27T09:35:23;96310.47;;;8.35;53.88
47556;BME280;33291;46.222;26.460;2023-04-27T09:37:49;96293.50;;;8.31;53.65
47556;BME280;33291;46.222;26.460;2023-04-27T09:40:19;96302.88;;;8.44;52.67
47556;BME280;33291;46.222;26.460;2023-04-27T09:42:48;96297.44;;;8.47;51.70
47556;BME280;33291;46.222;26.460;2023-04-27T09:45:13;96300.09;;;8.57;52.46
47556;BME280;33291;46.222;26.460;2023-04-27T09:47:39;96292.16;;;8.58;52.05
47556;BME280;33291;46.222;26.460;2023-04-27T09:50:06;96296.81;;;8.64;51.82
47556;BME280;33291;46.222;26.460;2023-04-27T09:52:32;96287.78;;;8.59;51.27
47556;BME280;33291;46.222;26.460;2023-04-27T09:54:58;96286.97;;;8.58;50.28
47556;BME280;33291;46.222;26.460;2023-04-27T09:57:38;96285.56;;;8.54;52.01
47556;BME280;33291;46.222;26.460;2023-04-27T10:00:10;96291.16;;;8.49;52.29
47556;BME280;33291;46.222;26.460;2023-04-27T10:02:48;96290.47;;;8.47;53.00
47556;BME280;33291;46.222;26.460;2023-04-27T10:05:36;96276.22;;;8.42;52.54
47556;BME280;33291;46.222;26.460;2023-04-27T10:08:08;96286.22;;;8.46;52.57
47556;BME280;33291;46.222;26.460;2023-04-27T10:10:42;96288.03;;;8.46;51.56
47556;BME280;33291;46.222;26.460;2023-04-27T10:13:19;96275.34;;;8.31;51.57
47556;BME280;33291;46.222;26.460;2023-04-27T10:15:45;96293.22;;;8.46;52.09
47556;BME280;33291;46.222;26.460;2023-04-27T10:18:11;96288.03;;;8.46;51.84
47556;BME280;33291;46.222;26.460;2023-04-27T10:20:36;96300.59;;;8.50;52.53
47556;BME280;33291;46.222;26.460;2023-04-27T10:23:02;96298.28;;;8.57;52.23
47556;BME280;33291;46.222;26.460;2023-04-27T10:25:36;96292.16;;;8.58;52.00
47556;BME280;33291;46.222;26.460;2023-04-27T10:28:02;96298.22;;;8.68;52.31
47556;BME280;33291;46.222;26.460;2023-04-27T10:30:34;96301.22;;;8.74;52.51
47556;BME280;33291;46.222;26.460;2023-04-27T10:33:04;96287.97;;;8.77;52.17
47556;BME280;33291;46.222;26.460;2023-04-27T10:35:38;96291.97;;;8.91;52.51
47556;BME280;33291;46.222;26.460;2023-04-27T10:38:18;96291.56;;;8.95;51.28
47556;BME280;33291;46.222;26.460;2023-04-27T10:40:56;96291.72;;;9.03;50.95
47556;BME280;33291;46.222;26.460;2023-04-27T10:43:26;96289.53;;;8.99;50.66
47556;BME280;33291;46.222;26.460;2023-04-27T10:45:52;96286.81;;;9.00;51.13
47556;BME280;33291;46.222;26.460;2023-04-27T10:48:18;96285.97;;;9.00;51.57
47556;BME280;33291;46.222;26.460;2023-04-27T10:50:43;96292.81;;;9.01;51.60
47556;BME280;33291;46.222;26.460;2023-04-27T10:53:11;96291.31;;;8.98;51.99
47556;BME280;33291;46.222;26.460;2023-04-27T10:55:37;96288.44;;;8.92;51.34
47556;BME280;33291;46.222;26.460;2023-04-27T10:58:02;96308.81;;;8.96;52.34
47556;BME280;33291;46.222;26.460;2023-04-27T11:00:33;96309.75;;;8.95;52.23
47556;BME280;33291;46.222;26.460;2023-04-27T11:03:21;96301.00;;;8.96;53.06
47556;BME280;33291;46.222;26.460;2023-04-27T11:05:48;96301.81;;;8.97;53.40
47556;BME280;33291;46.222;26.460;2023-04-27T11:08:17;96305.94;;;8.99;52.66
47556;BME280;33291;46.222;26.460;2023-04-27T11:10:49;96298.81;;;9.01;53.61
47556;BME280;33291;46.222;26.460;2023-04-27T11:13:20;96308.13;;;9.04;52.24
47556;BME280;33291;46.222;26.460;2023-04-27T11:15:53;96312.94;;;9.09;51.35
47556;BME280;33291;46.222;26.460;2023-04-27T11:18:20;96311.72;;;9.13;51.70
47556;BME280;33291;46.222;26.460;2023-04-27T11:20:51;96307.06;;;9.16;51.92
47556;BME280;33291;46.222;26.460;2023-04-27T11:23:29;96303.91;;;9.13;49.58
47556;BME280;33291;46.222;26.460;2023-04-27T11:25:55;96308.00;;;9.15;50.03
47556;BME280;33291;46.222;26.460;2023-04-27T11:28:23;96308.84;;;9.16;49.55
47556;BME280;33291;46.222;26.460;2023-04-27T11:30:58;96307.06;;;9.16;48.86
47556;BME280;33291;46.222;26.460;2023-04-27T11:33:24;96307.06;;;9.16;49.01
47556;BME280;33291;46.222;26.460;2023-04-27T11:35:51;96308.97;;;9.24;49.74
47556;BME280;33291;46.222;26.460;2023-04-27T11:38:18;96320.75;;;9.28;48.87
47556;BME280;33291;46.222;26.460;2023-04-27T11:40:57;96310.06;;;9.21;48.78
47556;BME280;33291;46.222;26.460;2023-04-27T11:43:26;96314.31;;;9.22;48.57
47556;BME280;33291;46.222;26.460;2023-04-27T11:45:52;96324.31;;;9.27;49.61
47556;BME280;33291;46.222;26.460;2023-04-27T11:48:22;96316.09;;;9.22;48.33
47556;BME280;33291;46.222;26.460;2023-04-27T11:50:48;96315.41;;;9.20;48.70
47556;BME280;33291;46.222;26.460;2023-04-27T11:53:14;96323.75;;;9.23;49.18
47556;BME280;33291;46.222;26.460;2023-04-27T11:55:41;96311.84;;;9.21;49.57
47556;BME280;33291;46.222;26.460;2023-04-27T11:58:14;96322.66;;;9.26;49.72
47556;BME280;33291;46.222;26.460;2023-04-27T12:00:40;96316.78;;;9.24;50.24
47556;BME280;33291;46.222;26.460;2023-04-27T12:03:06;96314.84;;;9.26;50.36
47556;BME280;33291;46.222;26.460;2023-04-27T12:05:33;96317.72;;;9.23;50.03
47556;BME280;33291;46.222;26.460;2023-04-27T12:07:59;96317.31;;;9.18;49.16
47556;BME280;33291;46.222;26.460;2023-04-27T12:10:24;96319.25;;;9.16;48.40
47556;BME280;33291;46.222;26.460;2023-04-27T12:12:50;96329.31;;;9.09;48.49
47556;BME280;33291;46.222;26.460;2023-04-27T12:15:15;96327.81;;;8.97;46.19
47556;BME280;33291;46.222;26.460;2023-04-27T12:17:41;96333.41;;;8.92;46.73
47556;BME280;33291;46.222;26.460;2023-04-27T12:20:07;96337.59;;;8.83;46.92
47556;BME280;33291;46.222;26.460;2023-04-27T12:22:33;96349.38;;;8.87;47.48
47556;BME280;33291;46.222;26.460;2023-04-27T12:24:58;96335.41;;;8.79;47.57
47556;BME280;33291;46.222;26.460;2023-04-27T12:27:24;96328.84;;;8.75;48.45
47556;BME280;33291;46.222;26.460;2023-04-27T12:29:50;96337.06;;;8.80;48.33
47556;BME280;33291;46.222;26.460;2023-04-27T12:32:18;96329.13;;;8.71;48.51
47556;BME280;33291;46.222;26.460;2023-04-27T12:34:44;96341.69;;;8.76;47.86
47556;BME280;33291;46.222;26.460;2023-04-27T12:37:11;96344.16;;;8.78;47.79
47556;BME280;33291;46.222;26.460;2023-04-27T12:39:36;96338.97;;;8.78;47.78
47556;BME280;33291;46.222;26.460;2023-04-27T12:42:02;96342.50;;;8.77;46.17
47556;BME280;33291;46.222;26.460;2023-04-27T12:44:28;96340.31;;;8.82;46.82
47556;BME280;33291;46.222;26.460;2023-04-27T12:46:54;96342.25;;;8.80;46.98
47556;BME280;33291;46.222;26.460;2023-04-27T12:49:20;96342.25;;;8.80;46.49
47556;BME280;33291;46.222;26.460;2023-04-27T12:51:46;96334.72;;;8.77;47.19
47556;BME280;33291;46.222;26.460;2023-04-27T12:54:12;96338.41;;;8.74;47.25
47556;BME280;33291;46.222;26.460;2023-04-27T12:56:37;96338.53;;;8.73;45.94